sensor_id;sensor_type;location;lat;lon;timestamp;P1;durP1;ratioP1;P2;durP2;ratioP2
10535;SDS011;5316;49.538;8.352;2023-08-06T00:01:21;2.60;;;1.60;;
10535;SDS011;5316;49.538;8.352;2023-08-06T00:03:49;2.87;;;1.87;;
10535;SDS011;5316;49.538;8.352;2023-08-06T00:06:17;2.10;;;1.80;;
10535;SDS011;5316;49.538;8.352;2023-08-06T00:08:44;1.80;;;1.70;;
10535;SDS011;5316;49.538;8.352;2023-08-06T00:11:11;3.10;;;1.87;;
10535;SDS011;5316;49.538;8.352;2023-08-06T00:13:39;2.37;;;1.60;;
10535;SDS011;5316;49.538;8.352;2023-08-06T00:16:08;2.30;;;1.50;;
10535;SDS011;5316;49.538;8.352;2023-08-06T00:18:35;1.60;;;1.50;;
10535;SDS011;5316;49.538;8.352;2023-08-06T00:21:02;1.53;;;1.43;;
10535;SDS011;5316;49.538;8.352;2023-08-06T00:23:31;1.80;;;1.70;;
10535;SDS011;5316;49.538;8.352;2023-08-06T00:25:58;2.20;;;1.90;;
10535;SDS011;5316;49.538;8.352;2023-08-06T00:28:25;2.07;;;1.57;;
10535;SDS011;5316;49.538;8.352;2023-08-06T00:30:52;1.70;;;1.53;;
10535;SDS011;5316;49.538;8.352;2023-08-06T00:33:20;1.70;;;1.60;;
10535;SDS011;5316;49.538;8.352;2023-08-06T00:35:47;2.27;;;2.07;;
10535;SDS011;5316;49.538;8.352;2023-08-06T00:38:14;2.37;;;1.73;;
10535;SDS011;5316;49.538;8.352;2023-08-06T00:40:42;1.87;;;1.77;;
10535;SDS011;5316;49.538;8.352;2023-08-06T00:43:09;3.20;;;1.60;;
10535;SDS011;5316;49.538;8.352;2023-08-06T00:45:37;1.60;;;1.50;;
10535;SDS011;5316;49.538;8.352;2023-08-06T00:48:04;1.67;;;1.57;;
10535;SDS011;5316;49.538;8.352;2023-08-06T00:50:34;1.77;;;1.30;;
10535;SDS011;5316;49.538;8.352;2023-08-06T00:53:01;2.00;;;1.50;;
10535;SDS011;5316;49.538;8.352;2023-08-06T00:55:28;1.63;;;1.30;;
10535;SDS011;5316;49.538;8.352;2023-08-06T00:57:57;1.43;;;1.37;;
10535;SDS011;5316;49.538;8.352;2023-08-06T01:00:25;1.53;;;1.43;;
10535;SDS011;5316;49.538;8.352;2023-08-06T01:02:53;3.17;;;1.50;;
10535;SDS011;5316;49.538;8.352;2023-08-06T01:05:20;2.20;;;2.00;;
10535;SDS011;5316;49.538;8.352;2023-08-06T01:10:45;1.87;;;1.70;;
10535;SDS011;5316;49.538;8.352;2023-08-06T01:13:22;1.70;;;1.60;;
10535;SDS011;5316;49.538;8.352;2023-08-06T01:15:55;2.00;;;1.60;;
10535;SDS011;5316;49.538;8.352;2023-08-06T01:18:24;1.60;;;1.50;;
10535;SDS011;5316;49.538;8.352;2023-08-06T01:20:53;1.60;;;1.50;;
10535;SDS011;5316;49.538;8.352;2023-08-06T01:23:20;4.37;;;2.27;;
10535;SDS011;5316;49.538;8.352;2023-08-06T01:25:49;2.20;;;2.00;;
10535;SDS011;5316;49.538;8.352;2023-08-06T01:28:23;2.73;;;1.27;;
10535;SDS011;5316;49.538;8.352;2023-08-06T01:30:55;2.17;;;1.57;;
10535;SDS011;5316;49.538;8.352;2023-08-06T01:33:28;1.73;;;1.47;;
10535;SDS011;5316;49.538;8.352;2023-08-06T01:36:00;1.80;;;1.40;;
10535;SDS011;5316;49.538;8.352;2023-08-06T01:38:29;2.07;;;1.40;;
10535;SDS011;5316;49.538;8.352;2023-08-06T01:40:56;2.80;;;1.50;;
10535;SDS011;5316;49.538;8.352;2023-08-06T01:43:26;2.00;;;1.30;;
10535;SDS011;5316;49.538;8.352;2023-08-06T01:45:53;4.73;;;1.50;;
10535;SDS011;5316;49.538;8.352;2023-08-06T01:48:20;1.70;;;1.60;;
10535;SDS011;5316;49.538;8.352;2023-08-06T01:50:47;1.50;;;1.40;;
10535;SDS011;5316;49.538;8.352;2023-08-06T01:53:15;1.43;;;1.33;;
10535;SDS011;5316;49.538;8.352;2023-08-06T01:55:47;1.40;;;1.30;;
10535;SDS011;5316;49.538;8.352;2023-08-06T01:58:14;1.93;;;1.50;;
10535;SDS011;5316;49.538;8.352;2023-08-06T02:00:41;1.73;;;1.40;;
10535;SDS011;5316;49.538;8.352;2023-08-06T02:03:08;2.20;;;1.30;;
10535;SDS011;5316;49.538;8.352;2023-08-06T02:05:35;1.50;;;1.40;;
10535;SDS011;5316;49.538;8.352;2023-08-06T02:08:02;1.60;;;1.40;;
10535;SDS011;5316;49.538;8.352;2023-08-06T02:10:31;2.13;;;1.83;;
10535;SDS011;5316;49.538;8.352;2023-08-06T02:13:00;1.83;;;1.43;;
10535;SDS011;5316;49.538;8.352;2023-08-06T02:15:28;2.90;;;1.67;;
10535;SDS011;5316;49.538;8.352;2023-08-06T02:17:55;1.77;;;1.60;;
10535;SDS011;5316;49.538;8.352;2023-08-06T02:20:22;1.53;;;1.43;;
10535;SDS011;5316;49.538;8.352;2023-08-06T02:22:49;2.27;;;1.50;;
10535;SDS011;5316;49.538;8.352;2023-08-06T02:25:16;2.27;;;1.63;;
10535;SDS011;5316;49.538;8.352;2023-08-06T02:27:45;1.43;;;1.33;;
10535;SDS011;5316;49.538;8.352;2023-08-06T02:30:13;1.80;;;1.60;;
10535;SDS011;5316;49.538;8.352;2023-08-06T02:32:39;2.60;;;1.50;;
10535;SDS011;5316;49.538;8.352;2023-08-06T02:35:07;1.67;;;1.50;;
10535;SDS011;5316;49.538;8.352;2023-08-06T02:37:34;2.63;;;1.50;;
10535;SDS011;5316;49.538;8.352;2023-08-06T02:40:03;2.33;;;1.40;;
10535;SDS011;5316;49.538;8.352;2023-08-06T02:42:31;2.50;;;1.53;;
10535;SDS011;5316;49.538;8.352;2023-08-06T02:44:59;1.53;;;1.43;;
10535;SDS011;5316;49.538;8.352;2023-08-06T02:47:26;3.13;;;1.60;;
10535;SDS011;5316;49.538;8.352;2023-08-06T02:49:53;1.40;;;1.30;;
10535;SDS011;5316;49.538;8.352;2023-08-06T02:52:21;1.50;;;1.40;;
10535;SDS011;5316;49.538;8.352;2023-08-06T02:54:48;1.40;;;1.30;;
10535;SDS011;5316;49.538;8.352;2023-08-06T02:57:15;3.07;;;1.30;;
10535;SDS011;5316;49.538;8.352;2023-08-06T02:59:42;1.93;;;1.43;;
10535;SDS011;5316;49.538;8.352;2023-08-06T03:02:11;1.60;;;1.50;;
10535;SDS011;5316;49.538;8.352;2023-08-06T03:04:38;1.80;;;1.40;;
10535;SDS011;5316;49.538;8.352;2023-08-06T03:07:07;1.50;;;1.20;;
10535;SDS011;5316;49.538;8.352;2023-08-06T03:09:34;1.43;;;1.33;;
10535;SDS011;5316;49.538;8.352;2023-08-06T03:12:01;1.40;;;1.30;;
10535;SDS011;5316;49.538;8.352;2023-08-06T03:14:28;2.67;;;1.30;;
10535;SDS011;5316;49.538;8.352;2023-08-06T03:16:55;2.67;;;1.80;;
10535;SDS011;5316;49.538;8.352;2023-08-06T03:19:23;1.43;;;1.33;;
10535;SDS011;5316;49.538;8.352;2023-08-06T03:21:50;1.83;;;1.30;;
10535;SDS011;5316;49.538;8.352;2023-08-06T03:24:18;3.73;;;1.40;;
10535;SDS011;5316;49.538;8.352;2023-08-06T03:26:46;2.00;;;1.30;;
10535;SDS011;5316;49.538;8.352;2023-08-06T03:29:13;1.83;;;1.40;;
10535;SDS011;5316;49.538;8.352;2023-08-06T03:31:41;1.40;;;1.30;;
10535;SDS011;5316;49.538;8.352;2023-08-06T03:34:46;1.50;;;1.37;;
10535;SDS011;5316;49.538;8.352;2023-08-06T03:37:12;2.03;;;1.40;;
10535;SDS011;5316;49.538;8.352;2023-08-06T03:39:39;2.30;;;1.43;;
10535;SDS011;5316;49.538;8.352;2023-08-06T03:42:07;1.63;;;1.30;;
10535;SDS011;5316;49.538;8.352;2023-08-06T03:44:33;2.43;;;1.50;;
10535;SDS011;5316;49.538;8.352;2023-08-06T03:47:01;4.30;;;1.40;;
10535;SDS011;5316;49.538;8.352;2023-08-06T03:49:28;2.57;;;1.40;;
10535;SDS011;5316;49.538;8.352;2023-08-06T03:51:59;2.57;;;1.33;;
10535;SDS011;5316;49.538;8.352;2023-08-06T03:54:26;1.53;;;1.43;;
10535;SDS011;5316;49.538;8.352;2023-08-06T03:56:52;1.43;;;1.20;;
10535;SDS011;5316;49.538;8.352;2023-08-06T03:59:20;1.60;;;1.10;;
10535;SDS011;5316;49.538;8.352;2023-08-06T04:01:47;2.90;;;0.93;;
10535;SDS011;5316;49.538;8.352;2023-08-06T04:04:19;1.03;;;0.90;;
10535;SDS011;5316;49.538;8.352;2023-08-06T04:13:32;1.00;;;0.90;;
10535;SDS011;5316;49.538;8.352;2023-08-06T04:16:00;1.07;;;0.70;;
10535;SDS011;5316;49.538;8.352;2023-08-06T04:18:28;2.60;;;0.80;;
10535;SDS011;5316;49.538;8.352;2023-08-06T04:20:55;1.20;;;1.00;;
10535;SDS011;5316;49.538;8.352;2023-08-06T04:23:25;1.67;;;1.00;;
10535;SDS011;5316;49.538;8.352;2023-08-06T04:25:56;1.87;;;0.87;;
10535;SDS011;5316;49.538;8.352;2023-08-06T04:28:26;2.53;;;0.80;;
10535;SDS011;5316;49.538;8.352;2023-08-06T04:30:54;1.67;;;0.60;;
10535;SDS011;5316;49.538;8.352;2023-08-06T04:33:35;0.90;;;0.60;;
10535;SDS011;5316;49.538;8.352;2023-08-06T04:36:02;1.10;;;0.40;;
10535;SDS011;5316;49.538;8.352;2023-08-06T04:38:48;0.77;;;0.50;;
10535;SDS011;5316;49.538;8.352;2023-08-06T04:41:15;2.53;;;0.47;;
10535;SDS011;5316;49.538;8.352;2023-08-06T04:43:43;2.10;;;0.40;;
10535;SDS011;5316;49.538;8.352;2023-08-06T04:46:21;0.93;;;0.40;;
10535;SDS011;5316;49.538;8.352;2023-08-06T04:48:52;1.33;;;0.50;;
10535;SDS011;5316;49.538;8.352;2023-08-06T05:01:57;1.20;;;1.10;;
10535;SDS011;5316;49.538;8.352;2023-08-06T05:04:24;4.27;;;1.13;;
10535;SDS011;5316;49.538;8.352;2023-08-06T05:06:51;1.50;;;1.00;;
10535;SDS011;5316;49.538;8.352;2023-08-06T05:09:18;0.90;;;0.90;;
10535;SDS011;5316;49.538;8.352;2023-08-06T05:11:45;1.83;;;0.80;;
10535;SDS011;5316;49.538;8.352;2023-08-06T05:14:13;2.80;;;1.00;;
10535;SDS011;5316;49.538;8.352;2023-08-06T05:16:40;1.07;;;0.73;;
10535;SDS011;5316;49.538;8.352;2023-08-06T05:19:08;1.90;;;0.70;;
10535;SDS011;5316;49.538;8.352;2023-08-06T05:21:35;1.90;;;0.90;;
10535;SDS011;5316;49.538;8.352;2023-08-06T05:24:02;0.50;;;0.50;;
10535;SDS011;5316;49.538;8.352;2023-08-06T05:26:29;0.40;;;0.40;;
10535;SDS011;5316;49.538;8.352;2023-08-06T05:28:56;1.27;;;0.50;;
10535;SDS011;5316;49.538;8.352;2023-08-06T05:31:24;0.30;;;0.30;;
10535;SDS011;5316;49.538;8.352;2023-08-06T05:33:51;0.43;;;0.40;;
10535;SDS011;5316;49.538;8.352;2023-08-06T05:36:20;0.40;;;0.20;;
10535;SDS011;5316;49.538;8.352;2023-08-06T05:38:52;0.20;;;0.20;;
10535;SDS011;5316;49.538;8.352;2023-08-06T05:41:19;0.97;;;0.30;;
10535;SDS011;5316;49.538;8.352;2023-08-06T05:43:46;0.40;;;0.30;;
10535;SDS011;5316;49.538;8.352;2023-08-06T05:46:13;0.77;;;0.20;;
10535;SDS011;5316;49.538;8.352;2023-08-06T05:48:40;0.30;;;0.27;;
10535;SDS011;5316;49.538;8.352;2023-08-06T05:51:07;0.80;;;0.30;;
10535;SDS011;5316;49.538;8.352;2023-08-06T05:53:39;0.63;;;0.30;;
10535;SDS011;5316;49.538;8.352;2023-08-06T05:56:06;0.23;;;0.20;;
10535;SDS011;5316;49.538;8.352;2023-08-06T05:58:33;0.30;;;0.30;;
10535;SDS011;5316;49.538;8.352;2023-08-06T06:01:00;1.17;;;0.40;;
10535;SDS011;5316;49.538;8.352;2023-08-06T06:03:27;0.73;;;0.50;;
10535;SDS011;5316;49.538;8.352;2023-08-06T06:05:55;1.50;;;1.10;;
10535;SDS011;5316;49.538;8.352;2023-08-06T06:08:22;0.77;;;0.70;;
10535;SDS011;5316;49.538;8.352;2023-08-06T06:11:08;1.47;;;0.40;;
10535;SDS011;5316;49.538;8.352;2023-08-06T06:13:36;0.60;;;0.60;;
10535;SDS011;5316;49.538;8.352;2023-08-06T06:16:05;3.43;;;3.10;;
10535;SDS011;5316;49.538;8.352;2023-08-06T06:18:33;2.47;;;1.00;;
10535;SDS011;5316;49.538;8.352;2023-08-06T06:21:02;1.13;;;0.67;;
10535;SDS011;5316;49.538;8.352;2023-08-06T06:23:30;1.43;;;0.50;;
10535;SDS011;5316;49.538;8.352;2023-08-06T06:25:59;1.40;;;0.50;;
10535;SDS011;5316;49.538;8.352;2023-08-06T06:28:28;3.83;;;2.23;;
10535;SDS011;5316;49.538;8.352;2023-08-06T06:30:59;5.30;;;4.23;;
10535;SDS011;5316;49.538;8.352;2023-08-06T06:33:27;0.60;;;0.60;;
10535;SDS011;5316;49.538;8.352;2023-08-06T06:35:54;0.90;;;0.60;;
10535;SDS011;5316;49.538;8.352;2023-08-06T06:38:22;1.23;;;0.40;;
10535;SDS011;5316;49.538;8.352;2023-08-06T06:40:55;0.63;;;0.50;;
10535;SDS011;5316;49.538;8.352;2023-08-06T06:43:23;1.77;;;0.47;;
10535;SDS011;5316;49.538;8.352;2023-08-06T06:45:53;1.47;;;0.67;;
10535;SDS011;5316;49.538;8.352;2023-08-06T06:48:22;1.23;;;0.63;;
10535;SDS011;5316;49.538;8.352;2023-08-06T06:50:50;1.47;;;0.53;;
10535;SDS011;5316;49.538;8.352;2023-08-06T06:53:18;0.63;;;0.50;;
10535;SDS011;5316;49.538;8.352;2023-08-06T06:55:45;1.00;;;0.50;;
10535;SDS011;5316;49.538;8.352;2023-08-06T06:58:20;1.47;;;0.50;;
10535;SDS011;5316;49.538;8.352;2023-08-06T07:00:48;0.67;;;0.30;;
10535;SDS011;5316;49.538;8.352;2023-08-06T07:17:05;1.13;;;0.20;;
10535;SDS011;5316;49.538;8.352;2023-08-06T07:19:32;0.77;;;0.20;;
10535;SDS011;5316;49.538;8.352;2023-08-06T07:24:36;0.60;;;0.50;;
10535;SDS011;5316;49.538;8.352;2023-08-06T07:27:07;0.53;;;0.53;;
10535;SDS011;5316;49.538;8.352;2023-08-06T07:29:34;0.40;;;0.30;;
10535;SDS011;5316;49.538;8.352;2023-08-06T07:34:39;0.50;;;0.30;;
10535;SDS011;5316;49.538;8.352;2023-08-06T07:37:08;2.67;;;0.67;;
10535;SDS011;5316;49.538;8.352;2023-08-06T07:47:44;0.10;;;0.10;;
10535;SDS011;5316;49.538;8.352;2023-08-06T07:52:53;0.70;;;0.70;;
10535;SDS011;5316;49.538;8.352;2023-08-06T07:55:20;1.67;;;1.47;;
10535;SDS011;5316;49.538;8.352;2023-08-06T07:57:48;0.73;;;0.70;;
10535;SDS011;5316;49.538;8.352;2023-08-06T08:00:15;0.40;;;0.40;;
10535;SDS011;5316;49.538;8.352;2023-08-06T08:02:43;0.43;;;0.30;;
10535;SDS011;5316;49.538;8.352;2023-08-06T08:05:17;1.60;;;0.50;;
10535;SDS011;5316;49.538;8.352;2023-08-06T08:07:44;0.30;;;0.20;;
10535;SDS011;5316;49.538;8.352;2023-08-06T08:10:21;0.30;;;0.30;;
10535;SDS011;5316;49.538;8.352;2023-08-06T08:12:57;0.30;;;0.30;;
10535;SDS011;5316;49.538;8.352;2023-08-06T08:15:27;0.20;;;0.20;;
10535;SDS011;5316;49.538;8.352;2023-08-06T08:18:05;0.30;;;0.30;;
10535;SDS011;5316;49.538;8.352;2023-08-06T08:20:36;0.30;;;0.30;;
10535;SDS011;5316;49.538;8.352;2023-08-06T08:23:04;0.33;;;0.33;;
10535;SDS011;5316;49.538;8.352;2023-08-06T08:28:35;0.30;;;0.30;;
10535;SDS011;5316;49.538;8.352;2023-08-06T08:33:50;0.37;;;0.30;;
10535;SDS011;5316;49.538;8.352;2023-08-06T08:36:18;0.60;;;0.60;;
10535;SDS011;5316;49.538;8.352;2023-08-06T08:38:48;0.43;;;0.30;;
10535;SDS011;5316;49.538;8.352;2023-08-06T08:41:21;0.50;;;0.30;;
10535;SDS011;5316;49.538;8.352;2023-08-06T08:43:54;1.00;;;0.40;;
10535;SDS011;5316;49.538;8.352;2023-08-06T08:46:25;0.20;;;0.20;;
10535;SDS011;5316;49.538;8.352;2023-08-06T08:49:10;0.30;;;0.30;;
10535;SDS011;5316;49.538;8.352;2023-08-06T08:51:38;0.20;;;0.20;;
10535;SDS011;5316;49.538;8.352;2023-08-06T09:04:30;0.20;;;0.20;;
10535;SDS011;5316;49.538;8.352;2023-08-06T09:07:00;0.10;;;0.10;;
10535;SDS011;5316;49.538;8.352;2023-08-06T09:09:31;0.10;;;0.10;;
10535;SDS011;5316;49.538;8.352;2023-08-06T09:12:11;0.20;;;0.20;;
10535;SDS011;5316;49.538;8.352;2023-08-06T09:14:40;0.10;;;0.10;;
10535;SDS011;5316;49.538;8.352;2023-08-06T09:17:07;0.20;;;0.20;;
10535;SDS011;5316;49.538;8.352;2023-08-06T09:19:39;0.20;;;0.20;;
10535;SDS011;5316;49.538;8.352;2023-08-06T09:22:11;0.23;;;0.20;;
10535;SDS011;5316;49.538;8.352;2023-08-06T09:24:39;0.57;;;0.20;;
10535;SDS011;5316;49.538;8.352;2023-08-06T09:27:13;0.50;;;0.50;;
10535;SDS011;5316;49.538;8.352;2023-08-06T09:29:45;0.40;;;0.40;;
10535;SDS011;5316;49.538;8.352;2023-08-06T09:32:15;0.30;;;0.30;;
10535;SDS011;5316;49.538;8.352;2023-08-06T09:34:46;0.20;;;0.20;;
10535;SDS011;5316;49.538;8.352;2023-08-06T09:37:13;0.10;;;0.10;;
10535;SDS011;5316;49.538;8.352;2023-08-06T09:39:40;0.53;;;0.10;;
10535;SDS011;5316;49.538;8.352;2023-08-06T09:42:08;1.07;;;0.50;;
10535;SDS011;5316;49.538;8.352;2023-08-06T09:44:36;0.30;;;0.20;;
10535;SDS011;5316;49.538;8.352;2023-08-06T09:47:06;0.10;;;0.10;;
10535;SDS011;5316;49.538;8.352;2023-08-06T09:49:40;0.13;;;0.13;;
10535;SDS011;5316;49.538;8.352;2023-08-06T09:52:13;0.10;;;0.10;;
10535;SDS011;5316;49.538;8.352;2023-08-06T09:54:42;0.10;;;0.10;;
10535;SDS011;5316;49.538;8.352;2023-08-06T10:02:24;0.10;;;0.10;;
10535;SDS011;5316;49.538;8.352;2023-08-06T10:04:54;0.50;;;0.20;;
10535;SDS011;5316;49.538;8.352;2023-08-06T10:07:25;0.10;;;0.10;;
10535;SDS011;5316;49.538;8.352;2023-08-06T10:09:55;0.03;;;0.03;;
10535;SDS011;5316;49.538;8.352;2023-08-06T10:12:23;0.10;;;0.10;;
10535;SDS011;5316;49.538;8.352;2023-08-06T10:14:52;1.40;;;0.10;;
10535;SDS011;5316;49.538;8.352;2023-08-06T10:17:22;0.10;;;0.10;;
10535;SDS011;5316;49.538;8.352;2023-08-06T10:19:51;0.30;;;0.20;;
10535;SDS011;5316;49.538;8.352;2023-08-06T10:22:26;0.50;;;0.50;;
10535;SDS011;5316;49.538;8.352;2023-08-06T10:24:54;0.30;;;0.30;;
10535;SDS011;5316;49.538;8.352;2023-08-06T10:27:22;0.10;;;0.10;;
10535;SDS011;5316;49.538;8.352;2023-08-06T10:29:55;0.10;;;0.10;;
10535;SDS011;5316;49.538;8.352;2023-08-06T10:32:46;0.83;;;0.10;;
10535;SDS011;5316;49.538;8.352;2023-08-06T10:35:27;0.10;;;0.10;;
10535;SDS011;5316;49.538;8.352;2023-08-06T10:38:08;0.30;;;0.17;;
10535;SDS011;5316;49.538;8.352;2023-08-06T10:40:36;0.83;;;0.10;;
10535;SDS011;5316;49.538;8.352;2023-08-06T10:43:07;2.40;;;0.93;;
10535;SDS011;5316;49.538;8.352;2023-08-06T12:41:00;0.30;;;0.30;;
10535;SDS011;5316;49.538;8.352;2023-08-06T12:43:27;1.63;;;0.97;;
10535;SDS011;5316;49.538;8.352;2023-08-06T12:45:55;1.03;;;0.40;;
10535;SDS011;5316;49.538;8.352;2023-08-06T12:48:21;0.33;;;0.33;;
10535;SDS011;5316;49.538;8.352;2023-08-06T12:50:48;1.70;;;0.43;;
10535;SDS011;5316;49.538;8.352;2023-08-06T12:53:33;0.50;;;0.50;;
10535;SDS011;5316;49.538;8.352;2023-08-06T12:56:02;0.73;;;0.30;;
10535;SDS011;5316;49.538;8.352;2023-08-06T12:58:29;0.30;;;0.30;;
10535;SDS011;5316;49.538;8.352;2023-08-06T13:00:58;0.30;;;0.30;;
10535;SDS011;5316;49.538;8.352;2023-08-06T13:03:25;0.40;;;0.40;;
10535;SDS011;5316;49.538;8.352;2023-08-06T13:05:52;0.70;;;0.40;;
10535;SDS011;5316;49.538;8.352;2023-08-06T13:08:20;0.40;;;0.30;;
10535;SDS011;5316;49.538;8.352;2023-08-06T13:10:47;0.20;;;0.20;;
10535;SDS011;5316;49.538;8.352;2023-08-06T13:13:15;0.73;;;0.33;;
10535;SDS011;5316;49.538;8.352;2023-08-06T13:15:42;0.60;;;0.60;;
10535;SDS011;5316;49.538;8.352;2023-08-06T13:18:09;0.30;;;0.30;;
10535;SDS011;5316;49.538;8.352;2023-08-06T13:20:37;0.30;;;0.30;;
10535;SDS011;5316;49.538;8.352;2023-08-06T13:23:05;0.50;;;0.30;;
10535;SDS011;5316;49.538;8.352;2023-08-06T13:25:32;0.30;;;0.30;;
10535;SDS011;5316;49.538;8.352;2023-08-06T13:28:01;0.70;;;0.30;;
10535;SDS011;5316;49.538;8.352;2023-08-06T13:30:30;1.03;;;0.33;;
10535;SDS011;5316;49.538;8.352;2023-08-06T13:32:57;0.77;;;0.47;;
10535;SDS011;5316;49.538;8.352;2023-08-06T13:35:24;0.20;;;0.20;;
10535;SDS011;5316;49.538;8.352;2023-08-06T13:37:51;0.43;;;0.40;;
10535;SDS011;5316;49.538;8.352;2023-08-06T13:40:19;0.30;;;0.30;;
10535;SDS011;5316;49.538;8.352;2023-08-06T13:42:46;0.30;;;0.30;;
10535;SDS011;5316;49.538;8.352;2023-08-06T13:45:13;0.60;;;0.40;;
10535;SDS011;5316;49.538;8.352;2023-08-06T13:47:42;0.33;;;0.30;;
10535;SDS011;5316;49.538;8.352;2023-08-06T13:50:09;0.33;;;0.33;;
10535;SDS011;5316;49.538;8.352;2023-08-06T13:52:37;1.00;;;0.40;;
10535;SDS011;5316;49.538;8.352;2023-08-06T13:55:05;0.63;;;0.23;;
10535;SDS011;5316;49.538;8.352;2023-08-06T14:00:00;0.27;;;0.20;;
10535;SDS011;5316;49.538;8.352;2023-08-06T14:02:27;0.30;;;0.30;;
10535;SDS011;5316;49.538;8.352;2023-08-06T14:04:56;0.40;;;0.30;;
10535;SDS011;5316;49.538;8.352;2023-08-06T14:07:23;0.80;;;0.30;;
10535;SDS011;5316;49.538;8.352;2023-08-06T14:09:52;0.70;;;0.40;;
10535;SDS011;5316;49.538;8.352;2023-08-06T14:12:23;0.77;;;0.30;;
10535;SDS011;5316;49.538;8.352;2023-08-06T14:14:50;0.50;;;0.30;;
10535;SDS011;5316;49.538;8.352;2023-08-06T14:17:17;0.37;;;0.37;;
10535;SDS011;5316;49.538;8.352;2023-08-06T14:19:44;0.83;;;0.40;;
10535;SDS011;5316;49.538;8.352;2023-08-06T14:22:12;0.50;;;0.40;;
10535;SDS011;5316;49.538;8.352;2023-08-06T14:24:39;0.37;;;0.33;;
10535;SDS011;5316;49.538;8.352;2023-08-06T14:27:07;0.27;;;0.27;;
10535;SDS011;5316;49.538;8.352;2023-08-06T14:29:34;0.27;;;0.27;;
10535;SDS011;5316;49.538;8.352;2023-08-06T14:32:01;0.60;;;0.43;;
10535;SDS011;5316;49.538;8.352;2023-08-06T14:34:28;0.43;;;0.43;;
10535;SDS011;5316;49.538;8.352;2023-08-06T14:36:55;0.27;;;0.27;;
10535;SDS011;5316;49.538;8.352;2023-08-06T14:39:23;1.33;;;0.40;;
10535;SDS011;5316;49.538;8.352;2023-08-06T14:41:50;1.20;;;0.43;;
10535;SDS011;5316;49.538;8.352;2023-08-06T14:44:19;1.13;;;0.37;;
10535;SDS011;5316;49.538;8.352;2023-08-06T14:46:48;1.40;;;0.40;;
10535;SDS011;5316;49.538;8.352;2023-08-06T14:49:15;0.57;;;0.30;;
10535;SDS011;5316;49.538;8.352;2023-08-06T14:51:42;0.80;;;0.30;;
10535;SDS011;5316;49.538;8.352;2023-08-06T14:54:09;0.40;;;0.40;;
10535;SDS011;5316;49.538;8.352;2023-08-06T14:56:38;0.83;;;0.40;;
10535;SDS011;5316;49.538;8.352;2023-08-06T14:59:05;0.60;;;0.30;;
10535;SDS011;5316;49.538;8.352;2023-08-06T15:01:32;0.70;;;0.27;;
10535;SDS011;5316;49.538;8.352;2023-08-06T15:04:00;0.30;;;0.30;;
10535;SDS011;5316;49.538;8.352;2023-08-06T15:06:27;0.30;;;0.30;;
10535;SDS011;5316;49.538;8.352;2023-08-06T15:08:55;0.40;;;0.30;;
10535;SDS011;5316;49.538;8.352;2023-08-06T15:11:26;0.30;;;0.30;;
10535;SDS011;5316;49.538;8.352;2023-08-06T15:13:56;0.40;;;0.20;;
10535;SDS011;5316;49.538;8.352;2023-08-06T15:16:26;0.30;;;0.30;;
10535;SDS011;5316;49.538;8.352;2023-08-06T15:18:54;0.50;;;0.30;;
10535;SDS011;5316;49.538;8.352;2023-08-06T15:21:23;0.20;;;0.20;;
10535;SDS011;5316;49.538;8.352;2023-08-06T15:23:51;2.67;;;0.30;;
10535;SDS011;5316;49.538;8.352;2023-08-06T15:26:22;0.40;;;0.20;;
10535;SDS011;5316;49.538;8.352;2023-08-06T15:28:49;0.40;;;0.20;;
10535;SDS011;5316;49.538;8.352;2023-08-06T15:31:20;0.77;;;0.20;;
10535;SDS011;5316;49.538;8.352;2023-08-06T15:33:47;0.50;;;0.20;;
10535;SDS011;5316;49.538;8.352;2023-08-06T15:36:14;0.40;;;0.30;;
10535;SDS011;5316;49.538;8.352;2023-08-06T15:38:42;0.40;;;0.30;;
10535;SDS011;5316;49.538;8.352;2023-08-06T15:41:09;0.50;;;0.23;;
10535;SDS011;5316;49.538;8.352;2023-08-06T15:43:36;0.27;;;0.27;;
10535;SDS011;5316;49.538;8.352;2023-08-06T15:46:03;1.53;;;0.30;;
10535;SDS011;5316;49.538;8.352;2023-08-06T15:48:31;0.20;;;0.20;;
10535;SDS011;5316;49.538;8.352;2023-08-06T15:50:59;1.00;;;0.20;;
10535;SDS011;5316;49.538;8.352;2023-08-06T15:53:28;0.20;;;0.20;;
10535;SDS011;5316;49.538;8.352;2023-08-06T15:55:56;1.13;;;0.20;;
10535;SDS011;5316;49.538;8.352;2023-08-06T15:58:23;0.53;;;0.30;;
10535;SDS011;5316;49.538;8.352;2023-08-06T16:00:51;1.13;;;0.20;;
10535;SDS011;5316;49.538;8.352;2023-08-06T16:03:18;0.30;;;0.30;;
10535;SDS011;5316;49.538;8.352;2023-08-06T16:05:47;0.57;;;0.30;;
10535;SDS011;5316;49.538;8.352;2023-08-06T16:08:15;0.73;;;0.30;;
10535;SDS011;5316;49.538;8.352;2023-08-06T16:10:42;0.80;;;0.40;;
10535;SDS011;5316;49.538;8.352;2023-08-06T16:13:10;0.30;;;0.30;;
10535;SDS011;5316;49.538;8.352;2023-08-06T16:15:37;0.77;;;0.30;;
10535;SDS011;5316;49.538;8.352;2023-08-06T16:18:05;0.20;;;0.20;;
10535;SDS011;5316;49.538;8.352;2023-08-06T16:20:32;0.40;;;0.30;;
10535;SDS011;5316;49.538;8.352;2023-08-06T16:23:07;0.53;;;0.30;;
10535;SDS011;5316;49.538;8.352;2023-08-06T16:25:37;0.67;;;0.30;;
10535;SDS011;5316;49.538;8.352;2023-08-06T16:28:04;0.30;;;0.30;;
10535;SDS011;5316;49.538;8.352;2023-08-06T16:30:34;1.03;;;0.50;;
10535;SDS011;5316;49.538;8.352;2023-08-06T16:33:01;1.03;;;0.40;;
10535;SDS011;5316;49.538;8.352;2023-08-06T16:35:28;0.30;;;0.30;;
10535;SDS011;5316;49.538;8.352;2023-08-06T16:37:56;0.53;;;0.30;;
10535;SDS011;5316;49.538;8.352;2023-08-06T16:40:25;0.93;;;0.40;;
10535;SDS011;5316;49.538;8.352;2023-08-06T16:42:52;0.70;;;0.30;;
10535;SDS011;5316;49.538;8.352;2023-08-06T16:45:20;0.40;;;0.33;;
10535;SDS011;5316;49.538;8.352;2023-08-06T16:47:51;1.03;;;0.43;;
10535;SDS011;5316;49.538;8.352;2023-08-06T16:50:18;0.50;;;0.27;;
10535;SDS011;5316;49.538;8.352;2023-08-06T16:56:22;0.83;;;0.30;;
10535;SDS011;5316;49.538;8.352;2023-08-06T16:58:59;2.30;;;1.30;;
10535;SDS011;5316;49.538;8.352;2023-08-06T17:01:35;0.60;;;0.40;;
10535;SDS011;5316;49.538;8.352;2023-08-06T17:04:07;0.40;;;0.40;;
10535;SDS011;5316;49.538;8.352;2023-08-06T17:06:35;1.03;;;0.50;;
10535;SDS011;5316;49.538;8.352;2023-08-06T17:09:02;1.20;;;0.50;;
10535;SDS011;5316;49.538;8.352;2023-08-06T17:11:31;1.27;;;0.60;;
10535;SDS011;5316;49.538;8.352;2023-08-06T17:14:04;0.40;;;0.40;;
10535;SDS011;5316;49.538;8.352;2023-08-06T17:16:32;1.90;;;0.40;;
10535;SDS011;5316;49.538;8.352;2023-08-06T17:18:59;0.30;;;0.30;;
10535;SDS011;5316;49.538;8.352;2023-08-06T17:21:26;0.37;;;0.20;;
10535;SDS011;5316;49.538;8.352;2023-08-06T17:23:54;1.07;;;0.97;;
10535;SDS011;5316;49.538;8.352;2023-08-06T17:26:21;0.63;;;0.50;;
10535;SDS011;5316;49.538;8.352;2023-08-06T17:28:51;0.40;;;0.40;;
10535;SDS011;5316;49.538;8.352;2023-08-06T17:31:19;0.40;;;0.40;;
10535;SDS011;5316;49.538;8.352;2023-08-06T17:33:46;0.40;;;0.40;;
10535;SDS011;5316;49.538;8.352;2023-08-06T17:36:13;0.30;;;0.30;;
10535;SDS011;5316;49.538;8.352;2023-08-06T17:38:46;0.30;;;0.30;;
10535;SDS011;5316;49.538;8.352;2023-08-06T17:41:14;0.60;;;0.37;;
10535;SDS011;5316;49.538;8.352;2023-08-06T17:43:41;0.57;;;0.20;;
10535;SDS011;5316;49.538;8.352;2023-08-06T17:46:12;0.50;;;0.30;;
10535;SDS011;5316;49.538;8.352;2023-08-06T17:48:39;0.67;;;0.37;;
10535;SDS011;5316;49.538;8.352;2023-08-06T17:51:06;1.90;;;0.53;;
10535;SDS011;5316;49.538;8.352;2023-08-06T17:53:35;0.57;;;0.30;;
10535;SDS011;5316;49.538;8.352;2023-08-06T17:56:02;2.67;;;0.47;;
10535;SDS011;5316;49.538;8.352;2023-08-06T17:58:30;0.30;;;0.30;;
10535;SDS011;5316;49.538;8.352;2023-08-06T18:00:57;0.40;;;0.30;;
10535;SDS011;5316;49.538;8.352;2023-08-06T18:03:25;0.40;;;0.30;;
10535;SDS011;5316;49.538;8.352;2023-08-06T18:05:56;0.50;;;0.40;;
10535;SDS011;5316;49.538;8.352;2023-08-06T18:08:24;1.63;;;0.47;;
10535;SDS011;5316;49.538;8.352;2023-08-06T18:10:53;0.50;;;0.40;;
10535;SDS011;5316;49.538;8.352;2023-08-06T18:13:22;0.60;;;0.50;;
10535;SDS011;5316;49.538;8.352;2023-08-06T18:15:49;0.97;;;0.87;;
10535;SDS011;5316;49.538;8.352;2023-08-06T18:18:16;1.07;;;0.40;;
10535;SDS011;5316;49.538;8.352;2023-08-06T18:20:46;0.73;;;0.50;;
10535;SDS011;5316;49.538;8.352;2023-08-06T18:23:13;0.97;;;0.40;;